Buoy 44778

sailwx.info

Track history (hours):
 
Tides and Currents Weather Stations Pressure Air Temp Water Temp Dewpoint Dewpoint Depression Visibility Wind Speed Wind Dir Waves Ship Positions

Drifting buoy 44778

Last reported at 2018-Jan-21 16:00 UTC. Time now 2018-Jan-21 16:59 UTC.
Position N 32°41' W 032°17'.

Barometer 1023.9 mb
Water temperature 20.6 ° C

Date/timePositionNaut miles runAvg speedWind from/ knotsBaromVisibWave heightAir tempDewpointWater temp
2018-Jan-21 16:00N 32°41' W 032°17'1 0.5 1023.9 20.6
2018-Jan-21 15:00N 32°41' W 032°18'0 0.0
2018-Jan-21 14:00N 32°41' W 032°18'1 0.5
2018-Jan-21 13:00N 32°41' W 032°19'1 0.3
2018-Jan-21 11:00N 32°41' W 032°19'1 0.5 1026.2 20.7
2018-Jan-21 10:00N 32°41' W 032°20'1 0.5 1026.0 20.7
2018-Jan-21 09:00N 32°41' W 032°20'1 0.6 1025.7 20.7
2018-Jan-21 08:00N 32°41' W 032°20'1 0.5 1025.6 20.7
2018-Jan-21 07:00N 32°41' W 032°21'1 0.5 1025.5 20.6
2018-Jan-21 06:00N 32°41' W 032°22'1 0.5 1025.2 20.6
2018-Jan-21 05:00N 32°41' W 032°22'1 0.6 1025.7 20.6
2018-Jan-21 04:00N 32°40' W 032°22'1 0.5 1025.8 20.6
2018-Jan-21 03:00N 32°40' W 032°23'0 0.0 1025.8 20.7
2018-Jan-21 02:00N 32°40' W 032°23'0 0.0 1026.4 20.7
2018-Jan-21 01:00N 32°40' W 032°23'1 0.5 1027.1 20.7
2018-Jan-21 00:00N 32°40' W 032°23'1 0.6 1027.6 20.7
2018-Jan-20 23:00N 32°40' W 032°23'1 0.5 1027.5 20.7
2018-Jan-20 22:00N 32°40' W 032°24'1 0.5 1027.3 20.7
2018-Jan-20 21:00N 32°40' W 032°25'0 0.0 1026.9 20.7
2018-Jan-20 20:00N 32°40' W 032°25'1 0.5 1026.6 20.7
2018-Jan-20 19:00N 32°40' W 032°25'0 0.0 1026.5 20.7
2018-Jan-20 18:00N 32°40' W 032°25'1 0.5 1026.4 20.7
2018-Jan-20 17:00N 32°40' W 032°26'1 0.6 1026.7 20.7
2018-Jan-20 16:00N 32°39' W 032°26'0 0.0 1026.8 20.7
2018-Jan-20 15:00N 32°39' W 032°26'1 0.5 1027.2 20.7
2018-Jan-20 14:00N 32°39' W 032°26'0 0.0 1028.1 20.6
2018-Jan-20 13:00N 32°39' W 032°26'1 0.8 1029.0 20.6
2018-Jan-20 12:00N 32°38' W 032°27'1 0.5 1029.1 20.6
2018-Jan-20 11:00N 32°38' W 032°28'0 0.0 1028.6 20.6
2018-Jan-20 10:00N 32°38' W 032°28'1 0.6 1028.3 20.6
2018-Jan-20 09:00N 32°38' W 032°28'0 0.0 1027.7 20.6
2018-Jan-20 08:00N 32°38' W 032°28'0 0.0 1027.5 20.6
2018-Jan-20 07:00N 32°38' W 032°28'0 0.0 1027.3 20.5
2018-Jan-20 06:00N 32°38' W 032°28'1 0.6 1027.4 20.5
2018-Jan-20 05:00N 32°37' W 032°28'0 0.0 1027.9 20.5
2018-Jan-20 04:00N 32°37' W 032°28'0 0.0 1028.3 20.5
2018-Jan-20 03:00N 32°37' W 032°28'0 0.0 1028.5 20.5
2018-Jan-20 02:00N 32°37' W 032°28'0 0.0 1029.0 20.5
2018-Jan-20 01:00N 32°37' W 032°28'0 0.0 1029.4 20.5
2018-Jan-20 00:00N 32°37' W 032°28'0 0.0 1029.6 20.5
2018-Jan-19 23:00N 32°37' W 032°28'1 0.5 1029.6 20.5
2018-Jan-19 22:00N 32°37' W 032°28'0 0.0 1029.5 20.5
2018-Jan-19 21:00N 32°37' W 032°28'1 0.6 1029.3 20.5
2018-Jan-19 20:00N 32°37' W 032°28'0 0.0 1029.3 20.5
2018-Jan-19 19:00N 32°37' W 032°28'0 0.0 1029.1 20.5
2018-Jan-19 18:00N 32°37' W 032°28'0 0.0 1028.9 20.6
2018-Jan-19 17:00N 32°37' W 032°28'0 0.0 1028.5 20.6
2018-Jan-19 16:00N 32°37' W 032°28'1 0.5 1028.4 20.6
2018-Jan-19 15:00N 32°37' W 032°28'0 0.0 1029.0 20.5
2018-Jan-19 14:00N 32°37' W 032°28'0 0.0 1029.6 20.6
2018-Jan-19 13:00N 32°37' W 032°28'1 0.5 1030.3 20.5
2018-Jan-19 12:00N 32°37' W 032°28'0 0.0 1030.8 20.5
2018-Jan-19 11:00N 32°37' W 032°28'0 0.0 1030.3 20.5
2018-Jan-19 10:00N 32°37' W 032°28'0 0.0 1029.8 20.5
2018-Jan-19 09:00N 32°37' W 032°28'0 0.0 1029.7 20.5
2018-Jan-19 08:00N 32°37' W 032°28'0 0.0 1029.5 20.5
2018-Jan-19 07:00N 32°37' W 032°28'0 0.0 1029.1 20.5
2018-Jan-19 06:00N 32°37' W 032°28'0 0.0 1029.2 20.5
2018-Jan-19 05:00N 32°37' W 032°28'1 0.6 1029.3 20.5
2018-Jan-19 04:00N 32°37' W 032°28'0 0.0 1029.6 20.5
2018-Jan-19 03:00N 32°37' W 032°28'1 0.5 1029.6 20.5
2018-Jan-19 02:00N 32°37' W 032°29'1 0.6 1030.2 20.6
2018-Jan-19 01:00N 32°37' W 032°29'0 0.0 1030.2 20.6
2018-Jan-19 00:00N 32°37' W 032°29'1 0.5 1030.4 20.6
2018-Jan-18 23:00N 32°37' W 032°29'0 0.0 1030.6 20.6
2018-Jan-18 22:00N 32°37' W 032°29'0 0.0 1030.6 20.6
2018-Jan-18 21:00N 32°37' W 032°29'0 0.0 1030.3 20.6
2018-Jan-18 20:00N 32°37' W 032°29'0 0.0 1030.1 20.6
2018-Jan-18 19:00N 32°37' W 032°29'0 0.0 1030.0 20.6
2018-Jan-18 18:00N 32°37' W 032°29'1 0.5 1029.9 20.6
2018-Jan-18 17:00N 32°37' W 032°29'0 0.0 1029.6 20.6
2018-Jan-18 16:00N 32°37' W 032°29'0 0.0 1029.5 20.6
2018-Jan-18 15:00N 32°37' W 032°29'0 0.0 1030.0 20.6
2018-Jan-18 14:00N 32°37' W 032°29'1 0.6 1030.7 20.6
2018-Jan-18 13:00N 32°37' W 032°29'0 0.0 1031.2 20.6
2018-Jan-18 12:00N 32°37' W 032°29'1 0.5 1031.1 20.6
2018-Jan-18 11:00N 32°37' W 032°29'0 0.0 1030.6 20.6
2018-Jan-18 10:00N 32°37' W 032°29'0 0.0 1029.8 20.6
2018-Jan-18 09:00N 32°37' W 032°29'0 0.0 1029.3 20.6
2018-Jan-18 08:00N 32°37' W 032°29'1 0.5 1028.9 20.7
2018-Jan-18 07:00N 32°37' W 032°30'0 0.0 1029.0 20.7
2018-Jan-18 06:00N 32°37' W 032°30'0 0.0 1029.2 20.7
2018-Jan-18 05:00N 32°37' W 032°30'0 0.0 1029.4 20.8
2018-Jan-18 04:00N 32°37' W 032°30'0 0.0 1029.5 20.8
2018-Jan-18 03:00N 32°37' W 032°30'0 0.0 1029.8 20.8
2018-Jan-18 02:00N 32°37' W 032°30'0 0.0 1030.0 20.8
2018-Jan-18 01:00N 32°37' W 032°30'0 0.0 1030.7 20.8
2018-Jan-18 00:00N 32°37' W 032°30'1 0.5 1031.0 20.8
2018-Jan-17 23:00N 32°37' W 032°31'0 0.0 1030.9 20.8
2018-Jan-17 22:00N 32°37' W 032°31'1 0.6 1031.0 20.8
2018-Jan-17 21:00N 32°37' W 032°31'1 0.5 1030.8 20.9
2018-Jan-17 20:00N 32°37' W 032°31'1 0.5 1030.5 20.9
2018-Jan-17 19:00N 32°37' W 032°31'1 0.6 1030.2 20.9
2018-Jan-17 18:00N 32°36' W 032°31'0 0.0 1030.1 20.9
2018-Jan-17 17:00N 32°36' W 032°31'0 0.0 1029.9 20.9
2018-Jan-17 16:00N 32°36' W 032°31'0 0.0 1030.4 21.0
2018-Jan-17 15:00N 32°36' W 032°31'1 0.6 1030.8 21.0
2018-Jan-17 14:00N 32°35' W 032°31'0 0.0 1031.6 20.9
2018-Jan-17 13:00N 32°35' W 032°31'0 0.0 1032.2 20.9
2018-Jan-17 12:00N 32°35' W 032°31'1 0.5 1032.2 20.9
2018-Jan-17 11:00N 32°35' W 032°31'1 0.6 1031.5 20.9
2018-Jan-17 10:00N 32°35' W 032°31'0 0.0 1031.0 20.9
2018-Jan-17 09:00N 32°35' W 032°31'1 0.6 1030.9 20.9
2018-Jan-17 08:00N 32°34' W 032°31'1 0.6 1030.6 20.9
2018-Jan-17 07:00N 32°34' W 032°31'0 0.0 1030.3 21.0
2018-Jan-17 06:00N 32°34' W 032°31'0 0.0 1030.7 21.0
2018-Jan-17 05:00N 32°34' W 032°31'0 0.0 1030.8 21.0
2018-Jan-17 04:00N 32°34' W 032°31'1 0.6 1031.1 21.0
2018-Jan-17 03:00N 32°33' W 032°31'0 0.0 1031.5 21.0
2018-Jan-17 02:00N 32°33' W 032°31'0 0.0 1032.0 21.0
2018-Jan-17 01:00N 32°33' W 032°31'1 0.6 1032.1 21.0
2018-Jan-17 00:00N 32°32' W 032°31'0 0.0 1032.1 21.0
2018-Jan-16 23:00N 32°32' W 032°31'0 0.0 1032.0 21.0
2018-Jan-16 22:00N 32°32' W 032°31'1 0.6 1032.1 21.0
2018-Jan-16 21:00N 32°32' W 032°31'0 0.0 1031.9 21.0
2018-Jan-16 20:00N 32°32' W 032°31'4 0.3 1031.5 21.0
2018-Jan-16 07:00N 32°31' W 032°26'1 0.6 1032.6 20.9
2018-Jan-16 06:00N 32°30' W 032°26'1 0.5 1032.9 20.9
2018-Jan-16 05:00N 32°30' W 032°26'1 0.5 1033.2 20.9
2018-Jan-16 04:00N 32°30' W 032°25'1 0.5 1033.5 20.9
2018-Jan-16 03:00N 32°30' W 032°25'0 0.0 1033.7 20.9
2018-Jan-16 02:00N 32°30' W 032°25'1 0.8 1033.9 20.9
2018-Jan-16 01:00N 32°31' W 032°24'1 0.5 1034.3 20.8
2018-Jan-16 00:00N 32°31' W 032°23'0 0.0 1034.4 20.9
2018-Jan-15 23:00N 32°31' W 032°23'0 0.0 1034.8 20.9
2018-Jan-15 22:00N 32°31' W 032°23'0 0.0 1034.3 20.9
2018-Jan-15 21:00N 32°31' W 032°23'1 0.5 1033.9 20.9
2018-Jan-15 20:00N 32°31' W 032°23'1 0.3 1033.6 20.8
2018-Jan-15 17:00N 32°30' W 032°22'1 0.5 1033.5 20.8
2018-Jan-15 16:00N 32°30' W 032°22'1 0.5 1033.6 20.8
2018-Jan-15 15:00N 32°30' W 032°21'0 0.0 1033.8 20.8
2018-Jan-15 14:00N 32°30' W 032°21'1 0.5 1034.2 20.8
2018-Jan-15 13:00N 32°30' W 032°20'1 0.6 1034.9 20.8
2018-Jan-15 12:00N 32°29' W 032°20'0 0.0 1035.4 20.8
2018-Jan-15 11:00N 32°29' W 032°20'0 0.0 1034.8 20.8
2018-Jan-15 10:00N 32°29' W 032°20'1 0.8 1034.2 20.8
2018-Jan-15 09:00N 32°29' W 032°20'0 0.0 1034.1 20.8
2018-Jan-15 08:00N 32°29' W 032°20'1 0.5 1033.4 20.8
2018-Jan-15 07:00N 32°29' W 032°19'0 0.0 1033.1 20.8
2018-Jan-15 06:00N 32°29' W 032°19'1 0.8 1033.2 20.8
2018-Jan-15 05:00N 32°28' W 032°19'1 0.5 1033.6 20.9
2018-Jan-15 04:00N 32°28' W 032°18'0 0.0 1033.8 20.9
2018-Jan-15 03:00N 32°28' W 032°18'1 0.8 1034.0 20.9
2018-Jan-15 02:00N 32°29' W 032°17'0 0.0 1034.5 20.9
2018-Jan-15 01:00N 32°29' W 032°17'1 0.5 1035.1 20.9
2018-Jan-15 00:00N 32°29' W 032°17'0 0.0 1035.3 20.9
2018-Jan-14 23:00N 32°29' W 032°17'0 0.0 1035.2 20.9
2018-Jan-14 22:00N 32°29' W 032°17'1 0.8 1034.9 20.9
2018-Jan-14 21:00N 32°28' W 032°16'0 0.0 1034.5 20.9
2018-Jan-14 20:00N 32°28' W 032°16'0 0.0 1034.2 20.9
2018-Jan-14 19:00N 32°28' W 032°16'1 0.5 1033.7 20.9
2018-Jan-14 18:00N 32°28' W 032°16'0 0.0 1033.5 20.9
2018-Jan-14 17:00N 32°28' W 032°16'0 0.0 1033.2 20.9
2018-Jan-14 16:00N 32°28' W 032°16'0 0.0 1033.2 20.9
2018-Jan-14 15:00N 32°28' W 032°16'1 0.5 1033.5 20.9
2018-Jan-14 14:00N 32°28' W 032°15'0 0.0 1034.2 20.9
2018-Jan-14 13:00N 32°28' W 032°15'0 0.0 1035.0 20.9
2018-Jan-14 12:00N 32°28' W 032°15'0 0.0 1035.3 20.9
2018-Jan-14 11:00N 32°28' W 032°15'0 0.0 1034.6 20.9
2018-Jan-14 10:00N 32°28' W 032°15'1 0.5 1034.0 20.9
2018-Jan-14 09:00N 32°28' W 032°14'0 0.0 1033.7 20.9
2018-Jan-14 08:00N 32°28' W 032°14'0 0.0 1033.3 20.9
2018-Jan-14 07:00N 32°28' W 032°14'1 0.5 1033.1 20.9
2018-Jan-14 06:00N 32°28' W 032°14'0 0.0 1033.1 20.9
2018-Jan-14 05:00N 32°28' W 032°14'0 0.0 1033.5 20.9
2018-Jan-14 04:00N 32°28' W 032°14'1 0.6 1033.8 20.9
2018-Jan-14 03:00N 32°29' W 032°14'0 0.0 1034.0 20.9
2018-Jan-14 02:00N 32°29' W 032°14'1 0.6 1034.6 20.9
2018-Jan-14 01:00N 32°29' W 032°14'0 0.0 1034.8 20.9
2018-Jan-14 00:00N 32°29' W 032°14'0 0.0 1034.8 20.8
2018-Jan-13 23:00N 32°29' W 032°14'5 0.2 1035.0 20.8
2018-Jan-12 15:00N 32°35' W 032°14'0 0.0 1030.3 21.1
2018-Jan-12 14:00N 32°35' W 032°14'0 0.0 1030.9 21.1
2018-Jan-12 13:00N 32°35' W 032°14'0 0.0 1031.5 21.1
2018-Jan-12 12:00N 32°35' W 032°14'1 0.6 1031.3 21.1
2018-Jan-12 11:00N 32°35' W 032°14'0 0.0 1030.4 21.0
2018-Jan-12 10:00N 32°35' W 032°14'0 0.0 1029.6 21.0
2018-Jan-12 09:00N 32°35' W 032°14'1 0.6 1028.6 21.0
2018-Jan-12 08:00N 32°36' W 032°14'1 0.5 1028.1 20.9
2018-Jan-12 07:00N 32°36' W 032°15'1 0.6 1027.3 20.9
2018-Jan-12 06:00N 32°37' W 032°15'1 0.6 1026.8 20.9
2018-Jan-12 05:00N 32°37' W 032°15'1 0.6 1026.7 20.9
2018-Jan-12 04:00N 32°38' W 032°15'1 0.6 1026.3 21.0
2018-Jan-12 03:00N 32°38' W 032°15'1 0.8 1026.1 21.0
2018-Jan-12 02:00N 32°39' W 032°16'1 0.6 1026.0 21.0
2018-Jan-12 01:00N 32°40' W 032°16'1 0.5 1025.8 21.0
2018-Jan-12 00:00N 32°40' W 032°16'1 0.8 1025.8 21.1
2018-Jan-11 23:00N 32°40' W 032°17'1 0.8 1025.8 21.1
2018-Jan-11 22:00N 32°41' W 032°17'1 0.8 1025.3 21.1
2018-Jan-11 21:00N 32°41' W 032°18'1 1.0 1024.5 21.1
2018-Jan-11 20:00N 32°41' W 032°19'1 0.8 1023.6 21.1
2018-Jan-11 19:00N 32°42' W 032°20'1 1.0 1023.3 21.1
2018-Jan-11 18:00N 32°42' W 032°21'1 0.5 1023.1 21.1
2018-Jan-11 17:00N 32°42' W 032°22'1 0.5 1023.2 21.2
2018-Jan-11 16:00N 32°42' W 032°22'   1023.3 21.2
Track history (hours):
 
Tides and Currents Weather Stations Pressure Air Temp Water Temp Dewpoint Dewpoint Depression Visibility Wind Speed Wind Dir Waves Ship Positions

Drifting buoy 44778

Last reported at 2018-Jan-21 16:00 UTC. Time now 2018-Jan-21 16:59 UTC.
Position N 32°41' W 032°17'.

Barometer 1023.9 mb
Water temperature 20.6 ° C

Date/timePositionNaut miles runAvg speedWind from/ knotsBaromVisibWave heightAir tempDewpointWater temp
2018-Jan-21 16:00N 32°41' W 032°17'1 0.5 1023.9 20.6
2018-Jan-21 15:00N 32°41' W 032°18'0 0.0
2018-Jan-21 14:00N 32°41' W 032°18'1 0.5
2018-Jan-21 13:00N 32°41' W 032°19'1 0.3
2018-Jan-21 11:00N 32°41' W 032°19'1 0.5 1026.2 20.7
2018-Jan-21 10:00N 32°41' W 032°20'1 0.5 1026.0 20.7
2018-Jan-21 09:00N 32°41' W 032°20'1 0.6 1025.7 20.7
2018-Jan-21 08:00N 32°41' W 032°20'1 0.5 1025.6 20.7
2018-Jan-21 07:00N 32°41' W 032°21'1 0.5 1025.5 20.6
2018-Jan-21 06:00N 32°41' W 032°22'1 0.5 1025.2 20.6
2018-Jan-21 05:00N 32°41' W 032°22'1 0.6 1025.7 20.6
2018-Jan-21 04:00N 32°40' W 032°22'1 0.5 1025.8 20.6
2018-Jan-21 03:00N 32°40' W 032°23'0 0.0 1025.8 20.7
2018-Jan-21 02:00N 32°40' W 032°23'0 0.0 1026.4 20.7
2018-Jan-21 01:00N 32°40' W 032°23'1 0.5 1027.1 20.7
2018-Jan-21 00:00N 32°40' W 032°23'1 0.6 1027.6 20.7
2018-Jan-20 23:00N 32°40' W 032°23'1 0.5 1027.5 20.7
2018-Jan-20 22:00N 32°40' W 032°24'1 0.5 1027.3 20.7
2018-Jan-20 21:00N 32°40' W 032°25'0 0.0 1026.9 20.7
2018-Jan-20 20:00N 32°40' W 032°25'1 0.5 1026.6 20.7
2018-Jan-20 19:00N 32°40' W 032°25'0 0.0 1026.5 20.7
2018-Jan-20 18:00N 32°40' W 032°25'1 0.5 1026.4 20.7
2018-Jan-20 17:00N 32°40' W 032°26'1 0.6 1026.7 20.7
2018-Jan-20 16:00N 32°39' W 032°26'0 0.0 1026.8 20.7
2018-Jan-20 15:00N 32°39' W 032°26'1 0.5 1027.2 20.7
2018-Jan-20 14:00N 32°39' W 032°26'0 0.0 1028.1 20.6
2018-Jan-20 13:00N 32°39' W 032°26'1 0.8 1029.0 20.6
2018-Jan-20 12:00N 32°38' W 032°27'1 0.5 1029.1 20.6
2018-Jan-20 11:00N 32°38' W 032°28'0 0.0 1028.6 20.6
2018-Jan-20 10:00N 32°38' W 032°28'1 0.6 1028.3 20.6
2018-Jan-20 09:00N 32°38' W 032°28'0 0.0 1027.7 20.6
2018-Jan-20 08:00N 32°38' W 032°28'0 0.0 1027.5 20.6
2018-Jan-20 07:00N 32°38' W 032°28'0 0.0 1027.3 20.5
2018-Jan-20 06:00N 32°38' W 032°28'1 0.6 1027.4 20.5
2018-Jan-20 05:00N 32°37' W 032°28'0 0.0 1027.9 20.5
2018-Jan-20 04:00N 32°37' W 032°28'0 0.0 1028.3 20.5
2018-Jan-20 03:00N 32°37' W 032°28'0 0.0 1028.5 20.5
2018-Jan-20 02:00N 32°37' W 032°28'0 0.0 1029.0 20.5
2018-Jan-20 01:00N 32°37' W 032°28'0 0.0 1029.4 20.5
2018-Jan-20 00:00N 32°37' W 032°28'0 0.0 1029.6 20.5
2018-Jan-19 23:00N 32°37' W 032°28'1 0.5 1029.6 20.5
2018-Jan-19 22:00N 32°37' W 032°28'0 0.0 1029.5 20.5
2018-Jan-19 21:00N 32°37' W 032°28'1 0.6 1029.3 20.5
2018-Jan-19 20:00N 32°37' W 032°28'0 0.0 1029.3 20.5
2018-Jan-19 19:00N 32°37' W 032°28'0 0.0 1029.1 20.5
2018-Jan-19 18:00N 32°37' W 032°28'0 0.0 1028.9 20.6
2018-Jan-19 17:00N 32°37' W 032°28'0 0.0 1028.5 20.6
2018-Jan-19 16:00N 32°37' W 032°28'1 0.5 1028.4 20.6
2018-Jan-19 15:00N 32°37' W 032°28'0 0.0 1029.0 20.5
2018-Jan-19 14:00N 32°37' W 032°28'0 0.0 1029.6 20.6
2018-Jan-19 13:00N 32°37' W 032°28'1 0.5 1030.3 20.5
2018-Jan-19 12:00N 32°37' W 032°28'0 0.0 1030.8 20.5
2018-Jan-19 11:00N 32°37' W 032°28'0 0.0 1030.3 20.5
2018-Jan-19 10:00N 32°37' W 032°28'0 0.0 1029.8 20.5
2018-Jan-19 09:00N 32°37' W 032°28'0 0.0 1029.7 20.5
2018-Jan-19 08:00N 32°37' W 032°28'0 0.0 1029.5 20.5
2018-Jan-19 07:00N 32°37' W 032°28'0 0.0 1029.1 20.5
2018-Jan-19 06:00N 32°37' W 032°28'0 0.0 1029.2 20.5
2018-Jan-19 05:00N 32°37' W 032°28'1 0.6 1029.3 20.5
2018-Jan-19 04:00N 32°37' W 032°28'0 0.0 1029.6 20.5
2018-Jan-19 03:00N 32°37' W 032°28'1 0.5 1029.6 20.5
2018-Jan-19 02:00N 32°37' W 032°29'1 0.6 1030.2 20.6
2018-Jan-19 01:00N 32°37' W 032°29'0 0.0 1030.2 20.6
2018-Jan-19 00:00N 32°37' W 032°29'1 0.5 1030.4 20.6
2018-Jan-18 23:00N 32°37' W 032°29'0 0.0 1030.6 20.6
2018-Jan-18 22:00N 32°37' W 032°29'0 0.0 1030.6 20.6
2018-Jan-18 21:00N 32°37' W 032°29'0 0.0 1030.3 20.6
2018-Jan-18 20:00N 32°37' W 032°29'0 0.0 1030.1 20.6
2018-Jan-18 19:00N 32°37' W 032°29'0 0.0 1030.0 20.6
2018-Jan-18 18:00N 32°37' W 032°29'1 0.5 1029.9 20.6
2018-Jan-18 17:00N 32°37' W 032°29'0 0.0 1029.6 20.6
2018-Jan-18 16:00N 32°37' W 032°29'0 0.0 1029.5 20.6
2018-Jan-18 15:00N 32°37' W 032°29'0 0.0 1030.0 20.6
2018-Jan-18 14:00N 32°37' W 032°29'1 0.6 1030.7 20.6
2018-Jan-18 13:00N 32°37' W 032°29'0 0.0 1031.2 20.6
2018-Jan-18 12:00N 32°37' W 032°29'1 0.5 1031.1 20.6
2018-Jan-18 11:00N 32°37' W 032°29'0 0.0 1030.6 20.6
2018-Jan-18 10:00N 32°37' W 032°29'0 0.0 1029.8 20.6
2018-Jan-18 09:00N 32°37' W 032°29'0 0.0 1029.3 20.6
2018-Jan-18 08:00N 32°37' W 032°29'1 0.5 1028.9 20.7
2018-Jan-18 07:00N 32°37' W 032°30'0 0.0 1029.0 20.7
2018-Jan-18 06:00N 32°37' W 032°30'0 0.0 1029.2 20.7
2018-Jan-18 05:00N 32°37' W 032°30'0 0.0 1029.4 20.8
2018-Jan-18 04:00N 32°37' W 032°30'0 0.0 1029.5 20.8
2018-Jan-18 03:00N 32°37' W 032°30'0 0.0 1029.8 20.8
2018-Jan-18 02:00N 32°37' W 032°30'0 0.0 1030.0 20.8
2018-Jan-18 01:00N 32°37' W 032°30'0 0.0 1030.7 20.8
2018-Jan-18 00:00N 32°37' W 032°30'1 0.5 1031.0 20.8
2018-Jan-17 23:00N 32°37' W 032°31'0 0.0 1030.9 20.8
2018-Jan-17 22:00N 32°37' W 032°31'1 0.6 1031.0 20.8
2018-Jan-17 21:00N 32°37' W 032°31'1 0.5 1030.8 20.9
2018-Jan-17 20:00N 32°37' W 032°31'1 0.5 1030.5 20.9
2018-Jan-17 19:00N 32°37' W 032°31'1 0.6 1030.2 20.9
2018-Jan-17 18:00N 32°36' W 032°31'0 0.0 1030.1 20.9
2018-Jan-17 17:00N 32°36' W 032°31'0 0.0 1029.9 20.9
2018-Jan-17 16:00N 32°36' W 032°31'0 0.0 1030.4 21.0
2018-Jan-17 15:00N 32°36' W 032°31'1 0.6 1030.8 21.0
2018-Jan-17 14:00N 32°35' W 032°31'0 0.0 1031.6 20.9
2018-Jan-17 13:00N 32°35' W 032°31'0 0.0 1032.2 20.9
2018-Jan-17 12:00N 32°35' W 032°31'1 0.5 1032.2 20.9
2018-Jan-17 11:00N 32°35' W 032°31'1 0.6 1031.5 20.9
2018-Jan-17 10:00N 32°35' W 032°31'0 0.0 1031.0 20.9
2018-Jan-17 09:00N 32°35' W 032°31'1 0.6 1030.9 20.9
2018-Jan-17 08:00N 32°34' W 032°31'1 0.6 1030.6 20.9
2018-Jan-17 07:00N 32°34' W 032°31'0 0.0 1030.3 21.0
2018-Jan-17 06:00N 32°34' W 032°31'0 0.0 1030.7 21.0
2018-Jan-17 05:00N 32°34' W 032°31'0 0.0 1030.8 21.0
2018-Jan-17 04:00N 32°34' W 032°31'1 0.6 1031.1 21.0
2018-Jan-17 03:00N 32°33' W 032°31'0 0.0 1031.5 21.0
2018-Jan-17 02:00N 32°33' W 032°31'0 0.0 1032.0 21.0
2018-Jan-17 01:00N 32°33' W 032°31'1 0.6 1032.1 21.0
2018-Jan-17 00:00N 32°32' W 032°31'0 0.0 1032.1 21.0
2018-Jan-16 23:00N 32°32' W 032°31'0 0.0 1032.0 21.0
2018-Jan-16 22:00N 32°32' W 032°31'1 0.6 1032.1 21.0
2018-Jan-16 21:00N 32°32' W 032°31'0 0.0 1031.9 21.0
2018-Jan-16 20:00N 32°32' W 032°31'4 0.3 1031.5 21.0
2018-Jan-16 07:00N 32°31' W 032°26'1 0.6 1032.6 20.9
2018-Jan-16 06:00N 32°30' W 032°26'1 0.5 1032.9 20.9
2018-Jan-16 05:00N 32°30' W 032°26'1 0.5 1033.2 20.9
2018-Jan-16 04:00N 32°30' W 032°25'1 0.5 1033.5 20.9
2018-Jan-16 03:00N 32°30' W 032°25'0 0.0 1033.7 20.9
2018-Jan-16 02:00N 32°30' W 032°25'1 0.8 1033.9 20.9
2018-Jan-16 01:00N 32°31' W 032°24'1 0.5 1034.3 20.8
2018-Jan-16 00:00N 32°31' W 032°23'0 0.0 1034.4 20.9
2018-Jan-15 23:00N 32°31' W 032°23'0 0.0 1034.8 20.9
2018-Jan-15 22:00N 32°31' W 032°23'0 0.0 1034.3 20.9
2018-Jan-15 21:00N 32°31' W 032°23'1 0.5 1033.9 20.9
2018-Jan-15 20:00N 32°31' W 032°23'1 0.3 1033.6 20.8
2018-Jan-15 17:00N 32°30' W 032°22'1 0.5 1033.5 20.8
2018-Jan-15 16:00N 32°30' W 032°22'1 0.5 1033.6 20.8
2018-Jan-15 15:00N 32°30' W 032°21'0 0.0 1033.8 20.8
2018-Jan-15 14:00N 32°30' W 032°21'1 0.5 1034.2 20.8
2018-Jan-15 13:00N 32°30' W 032°20'1 0.6 1034.9 20.8
2018-Jan-15 12:00N 32°29' W 032°20'0 0.0 1035.4 20.8
2018-Jan-15 11:00N 32°29' W 032°20'0 0.0 1034.8 20.8
2018-Jan-15 10:00N 32°29' W 032°20'1 0.8 1034.2 20.8
2018-Jan-15 09:00N 32°29' W 032°20'0 0.0 1034.1 20.8
2018-Jan-15 08:00N 32°29' W 032°20'1 0.5 1033.4 20.8
2018-Jan-15 07:00N 32°29' W 032°19'0 0.0 1033.1 20.8
2018-Jan-15 06:00N 32°29' W 032°19'1 0.8 1033.2 20.8
2018-Jan-15 05:00N 32°28' W 032°19'1 0.5 1033.6 20.9
2018-Jan-15 04:00N 32°28' W 032°18'0 0.0 1033.8 20.9
2018-Jan-15 03:00N 32°28' W 032°18'1 0.8 1034.0 20.9
2018-Jan-15 02:00N 32°29' W 032°17'0 0.0 1034.5 20.9
2018-Jan-15 01:00N 32°29' W 032°17'1 0.5 1035.1 20.9
2018-Jan-15 00:00N 32°29' W 032°17'0 0.0 1035.3 20.9
2018-Jan-14 23:00N 32°29' W 032°17'0 0.0 1035.2 20.9
2018-Jan-14 22:00N 32°29' W 032°17'1 0.8 1034.9 20.9
2018-Jan-14 21:00N 32°28' W 032°16'0 0.0 1034.5 20.9
2018-Jan-14 20:00N 32°28' W 032°16'0 0.0 1034.2 20.9
2018-Jan-14 19:00N 32°28' W 032°16'1 0.5 1033.7 20.9
2018-Jan-14 18:00N 32°28' W 032°16'0 0.0 1033.5 20.9
2018-Jan-14 17:00N 32°28' W 032°16'0 0.0 1033.2 20.9
2018-Jan-14 16:00N 32°28' W 032°16'0 0.0 1033.2 20.9
2018-Jan-14 15:00N 32°28' W 032°16'1 0.5 1033.5 20.9
2018-Jan-14 14:00N 32°28' W 032°15'0 0.0 1034.2 20.9
2018-Jan-14 13:00N 32°28' W 032°15'0 0.0 1035.0 20.9
2018-Jan-14 12:00N 32°28' W 032°15'0 0.0 1035.3 20.9
2018-Jan-14 11:00N 32°28' W 032°15'0 0.0 1034.6 20.9
2018-Jan-14 10:00N 32°28' W 032°15'1 0.5 1034.0 20.9
2018-Jan-14 09:00N 32°28' W 032°14'0 0.0 1033.7 20.9
2018-Jan-14 08:00N 32°28' W 032°14'0 0.0 1033.3 20.9
2018-Jan-14 07:00N 32°28' W 032°14'1 0.5 1033.1 20.9
2018-Jan-14 06:00N 32°28' W 032°14'0 0.0 1033.1 20.9
2018-Jan-14 05:00N 32°28' W 032°14'0 0.0 1033.5 20.9
2018-Jan-14 04:00N 32°28' W 032°14'1 0.6 1033.8 20.9
2018-Jan-14 03:00N 32°29' W 032°14'0 0.0 1034.0 20.9
2018-Jan-14 02:00N 32°29' W 032°14'1 0.6 1034.6 20.9
2018-Jan-14 01:00N 32°29' W 032°14'0 0.0 1034.8 20.9
2018-Jan-14 00:00N 32°29' W 032°14'0 0.0 1034.8 20.8
2018-Jan-13 23:00N 32°29' W 032°14'5 0.2 1035.0 20.8
2018-Jan-12 15:00N 32°35' W 032°14'0 0.0 1030.3 21.1
2018-Jan-12 14:00N 32°35' W 032°14'0 0.0 1030.9 21.1
2018-Jan-12 13:00N 32°35' W 032°14'0 0.0 1031.5 21.1
2018-Jan-12 12:00N 32°35' W 032°14'1 0.6 1031.3 21.1
2018-Jan-12 11:00N 32°35' W 032°14'0 0.0 1030.4 21.0
2018-Jan-12 10:00N 32°35' W 032°14'0 0.0 1029.6 21.0
2018-Jan-12 09:00N 32°35' W 032°14'1 0.6 1028.6 21.0
2018-Jan-12 08:00N 32°36' W 032°14'1 0.5 1028.1 20.9
2018-Jan-12 07:00N 32°36' W 032°15'1 0.6 1027.3 20.9
2018-Jan-12 06:00N 32°37' W 032°15'1 0.6 1026.8 20.9
2018-Jan-12 05:00N 32°37' W 032°15'1 0.6 1026.7 20.9
2018-Jan-12 04:00N 32°38' W 032°15'1 0.6 1026.3 21.0
2018-Jan-12 03:00N 32°38' W 032°15'1 0.8 1026.1 21.0
2018-Jan-12 02:00N 32°39' W 032°16'1 0.6 1026.0 21.0
2018-Jan-12 01:00N 32°40' W 032°16'1 0.5 1025.8 21.0
2018-Jan-12 00:00N 32°40' W 032°16'1 0.8 1025.8 21.1
2018-Jan-11 23:00N 32°40' W 032°17'1 0.8 1025.8 21.1
2018-Jan-11 22:00N 32°41' W 032°17'1 0.8 1025.3 21.1
2018-Jan-11 21:00N 32°41' W 032°18'1 1.0 1024.5 21.1
2018-Jan-11 20:00N 32°41' W 032°19'1 0.8 1023.6 21.1
2018-Jan-11 19:00N 32°42' W 032°20'1 1.0 1023.3 21.1
2018-Jan-11 18:00N 32°42' W 032°21'1 0.5 1023.1 21.1
2018-Jan-11 17:00N 32°42' W 032°22'1 0.5 1023.2 21.2
2018-Jan-11 16:00N 32°42' W 032°22'   1023.3 21.2

Dump ship's entire track history